createdAt,value
2023-01-09T00:00:18.066Z,1.20
2023-01-09T00:02:46.369Z,0.77
2023-01-09T00:05:16.889Z,0.95
2023-01-09T00:07:45.214Z,0.80
2023-01-09T00:10:15.733Z,0.90
2023-01-09T00:12:44.063Z,1.00
2023-01-09T00:15:12.428Z,0.60
2023-01-09T00:17:40.990Z,0.80
2023-01-09T00:20:11.381Z,1.15
2023-01-09T00:22:39.643Z,0.70
2023-01-09T00:25:08.128Z,0.70
2023-01-09T00:27:36.812Z,0.77
2023-01-09T00:30:05.806Z,0.95
2023-01-09T00:32:52.573Z,0.75
2023-01-09T00:35:39.099Z,0.73
2023-01-09T00:41:16.037Z,0.88
2023-01-09T00:43:49.051Z,0.70
2023-01-09T00:46:18.553Z,0.80
2023-01-09T00:48:49.923Z,0.50
2023-01-09T00:51:37.258Z,0.50
2023-01-09T00:54:05.902Z,0.77
2023-01-09T00:56:52.587Z,0.57
2023-01-09T00:59:21.102Z,0.60
2023-01-09T01:01:49.783Z,0.47
2023-01-09T01:04:54.577Z,0.50
2023-01-09T01:07:41.861Z,0.85
2023-01-09T01:12:58.015Z,0.52
2023-01-09T01:15:29.620Z,0.68
2023-01-09T01:17:57.868Z,0.55
2023-01-09T01:20:26.578Z,0.60
2023-01-09T01:22:54.786Z,0.60
2023-01-09T01:25:23.357Z,0.60
2023-01-09T01:28:10.235Z,0.40
2023-01-09T01:30:40.623Z,0.70
2023-01-09T01:33:10.044Z,0.60
2023-01-09T01:35:38.933Z,0.73
2023-01-09T01:38:07.181Z,0.60
2023-01-09T01:40:36.262Z,0.43
2023-01-09T01:43:04.597Z,0.50
2023-01-09T01:45:34.644Z,0.45
2023-01-09T01:48:29.117Z,0.80
2023-01-09T01:51:02.906Z,0.40
2023-01-09T01:53:35.527Z,0.50
2023-01-09T01:56:22.140Z,0.60
2023-01-09T01:58:59.812Z,0.55
2023-01-09T02:04:17.812Z,0.60
2023-01-09T02:06:48.926Z,0.50
2023-01-09T02:09:18.699Z,0.38
2023-01-09T02:11:48.184Z,0.55
2023-01-09T02:14:17.010Z,0.60
2023-01-09T02:17:10.130Z,0.47
2023-01-09T02:19:56.546Z,0.60
2023-01-09T02:23:01.967Z,0.57
2023-01-09T02:26:05.162Z,0.63
2023-01-09T02:29:00.207Z,0.50
2023-01-09T02:32:06.854Z,0.50
2023-01-09T02:35:07.702Z,0.40
2023-01-09T02:38:12.600Z,0.50
2023-01-09T02:40:49.950Z,0.50
2023-01-09T02:43:18.579Z,0.40
2023-01-09T02:45:46.810Z,0.40
2023-01-09T02:48:15.090Z,0.40
2023-01-09T02:51:11.264Z,0.52
2023-01-09T02:54:00.180Z,0.38
2023-01-09T02:56:51.895Z,0.43
2023-01-09T02:59:20.303Z,0.40
2023-01-09T03:02:25.482Z,0.30
2023-01-09T03:05:02.810Z,0.50
2023-01-09T03:07:37.230Z,0.57
2023-01-09T03:10:19.288Z,0.40
2023-01-09T03:12:52.067Z,0.50
2023-01-09T03:15:24.658Z,0.40
2023-01-09T03:17:54.341Z,0.50
2023-01-09T03:20:28.022Z,0.40
2023-01-09T03:23:01.357Z,0.68
2023-01-09T03:25:31.478Z,0.50
2023-01-09T03:28:08.239Z,0.47
2023-01-09T03:30:37.674Z,0.40
2023-01-09T03:33:05.930Z,0.43
2023-01-09T03:35:34.134Z,0.47
2023-01-09T03:38:39.457Z,0.43
2023-01-09T03:41:08.083Z,0.60
2023-01-09T03:43:36.496Z,0.38
2023-01-09T03:46:05.516Z,0.40
2023-01-09T03:51:19.392Z,0.32
2023-01-09T03:53:47.648Z,0.30
2023-01-09T03:56:15.978Z,0.35
2023-01-09T03:58:44.164Z,0.50
2023-01-09T04:01:13.245Z,0.93
2023-01-09T04:03:41.640Z,0.40
2023-01-09T04:06:09.874Z,0.50
2023-01-09T04:08:38.351Z,0.50
2023-01-09T04:11:06.773Z,0.35
2023-01-09T04:13:35.072Z,0.30
2023-01-09T04:16:21.668Z,0.45
2023-01-09T04:18:49.937Z,0.70
2023-01-09T04:21:18.314Z,0.45
2023-01-09T04:23:46.763Z,0.38
2023-01-09T04:26:15.131Z,0.40
2023-01-09T04:28:43.531Z,0.32
2023-01-09T04:31:11.839Z,0.38
2023-01-09T04:33:40.182Z,0.40
2023-01-09T04:36:28.300Z,0.35
2023-01-09T04:38:56.675Z,0.30
2023-01-09T04:41:43.240Z,0.40
2023-01-09T04:44:11.552Z,0.50
2023-01-09T04:46:39.812Z,0.30
2023-01-09T04:49:08.457Z,0.38
2023-01-09T04:51:36.630Z,0.25
2023-01-09T04:54:05.167Z,0.20
2023-01-09T04:56:33.622Z,0.40
2023-01-09T04:59:01.751Z,0.30
2023-01-09T05:01:49.163Z,0.30
2023-01-09T05:04:36.663Z,0.25
2023-01-09T05:07:05.134Z,0.30
2023-01-09T05:09:51.532Z,0.22
2023-01-09T05:12:19.828Z,0.20
2023-01-09T05:14:48.018Z,0.38
2023-01-09T05:17:16.145Z,0.28
2023-01-09T05:19:45.849Z,0.30
2023-01-09T05:22:32.670Z,0.20
2023-01-09T05:25:01.031Z,0.30
2023-01-09T05:27:30.692Z,0.40
2023-01-09T05:32:44.281Z,0.40
2023-01-09T05:35:12.602Z,0.40
2023-01-09T05:37:40.709Z,0.50
2023-01-09T05:40:09.498Z,1.05
2023-01-09T05:42:37.583Z,0.30
2023-01-09T05:48:58.103Z,0.40
2023-01-09T05:51:26.205Z,0.50
2023-01-09T05:53:54.385Z,0.40
2023-01-09T05:56:22.526Z,0.57
2023-01-09T05:58:50.633Z,0.60
2023-01-09T06:01:18.631Z,0.50
2023-01-09T06:03:46.747Z,1.00
2023-01-09T06:06:14.816Z,0.55
2023-01-09T06:08:42.950Z,0.52
2023-01-09T06:11:11.021Z,0.70
2023-01-09T06:13:39.083Z,0.73
2023-01-09T06:16:07.813Z,0.60
2023-01-09T06:18:35.994Z,0.40
2023-01-09T06:21:04.111Z,0.47
2023-01-09T06:23:32.204Z,0.52
2023-01-09T06:26:00.330Z,0.38
2023-01-09T06:28:28.382Z,0.60
2023-01-09T06:30:56.454Z,0.50
2023-01-09T06:33:24.751Z,0.50
2023-01-09T06:35:52.857Z,0.60
2023-01-09T06:38:21.169Z,0.60
2023-01-09T06:40:50.530Z,0.55
2023-01-09T06:43:18.818Z,0.90
2023-01-09T06:45:46.903Z,0.73
2023-01-09T06:48:15.044Z,0.45
2023-01-09T06:50:43.142Z,0.50
2023-01-09T06:53:11.161Z,0.70
2023-01-09T06:55:39.282Z,0.82
2023-01-09T06:58:07.374Z,0.60
2023-01-09T07:00:35.711Z,0.40
2023-01-09T07:03:04.213Z,0.47
2023-01-09T07:05:37.935Z,0.20
2023-01-09T07:08:06.129Z,0.52
2023-01-09T07:10:34.312Z,0.40
2023-01-09T07:13:02.423Z,0.57
2023-01-09T07:15:50.455Z,0.60
2023-01-09T07:18:18.707Z,0.60
2023-01-09T07:20:47.223Z,0.70
2023-01-09T07:23:16.153Z,0.88
2023-01-09T07:25:44.492Z,0.45
2023-01-09T07:28:12.718Z,0.70
2023-01-09T07:30:40.814Z,0.40
2023-01-09T07:33:08.898Z,0.40
2023-01-09T07:35:36.951Z,0.57
2023-01-09T07:38:05.125Z,0.73
2023-01-09T07:40:33.420Z,0.75
2023-01-09T07:43:01.669Z,0.85
2023-01-09T07:45:48.499Z,0.50
2023-01-09T07:48:16.576Z,0.63
2023-01-09T07:50:44.630Z,0.60
2023-01-09T07:53:12.823Z,0.55
2023-01-09T07:55:43.263Z,0.63
2023-01-09T07:58:11.443Z,0.70
2023-01-09T08:00:39.604Z,0.70
2023-01-09T08:03:07.790Z,0.70
2023-01-09T08:05:36.179Z,0.57
2023-01-09T08:08:04.383Z,0.50
2023-01-09T08:10:32.486Z,0.70
2023-01-09T08:13:00.659Z,0.68
2023-01-09T08:15:28.990Z,0.68
2023-01-09T08:17:57.123Z,0.50
2023-01-09T08:20:25.308Z,0.55
2023-01-09T08:22:54.741Z,0.75
2023-01-09T08:25:22.918Z,0.45
2023-01-09T08:27:50.972Z,0.70
2023-01-09T08:30:19.602Z,0.50
2023-01-09T08:32:54.465Z,0.50
2023-01-09T08:35:22.636Z,0.45
2023-01-09T08:37:50.738Z,0.50
2023-01-09T08:40:19.376Z,0.68
2023-01-09T08:43:06.116Z,0.73
2023-01-09T08:45:53.485Z,0.50
2023-01-09T08:48:21.778Z,0.82
2023-01-09T08:50:49.875Z,0.60
2023-01-09T08:53:17.988Z,0.70
2023-01-09T08:55:47.239Z,0.65
2023-01-09T08:58:15.421Z,0.68
2023-01-09T09:00:43.635Z,0.50
2023-01-09T09:03:12.513Z,0.55
2023-01-09T09:05:40.732Z,0.70
2023-01-09T09:08:08.876Z,0.57
2023-01-09T09:10:36.964Z,0.40
2023-01-09T09:13:05.128Z,0.60
2023-01-09T09:15:34.643Z,0.50
2023-01-09T09:18:24.219Z,0.50
2023-01-09T09:20:52.315Z,0.60
2023-01-09T09:23:20.462Z,0.70
2023-01-09T09:25:48.660Z,0.55
2023-01-09T09:28:16.794Z,0.60
2023-01-09T09:30:44.839Z,0.50
2023-01-09T09:33:12.999Z,0.60
2023-01-09T09:35:41.095Z,0.38
2023-01-09T09:38:10.704Z,0.70
2023-01-09T09:41:36.213Z,0.85
2023-01-09T09:47:55.721Z,0.90
2023-01-09T09:50:42.233Z,0.80
2023-01-09T09:53:22.154Z,1.40
2023-01-09T09:55:51.355Z,1.23
2023-01-09T09:58:22.064Z,1.02
2023-01-09T10:00:51.493Z,1.10
2023-01-09T10:03:34.196Z,0.90
2023-01-09T10:06:11.186Z,0.90
2023-01-09T10:09:17.001Z,1.02
2023-01-09T10:12:17.687Z,1.10
2023-01-09T10:17:48.778Z,1.08
2023-01-09T10:21:01.458Z,1.08
2023-01-09T10:24:07.808Z,0.80
2023-01-09T10:26:38.464Z,0.80
2023-01-09T10:29:21.684Z,1.40
2023-01-09T10:32:22.834Z,1.00
2023-01-09T10:35:02.796Z,0.63
2023-01-09T10:37:39.824Z,0.98
2023-01-09T10:40:31.312Z,0.80
2023-01-09T10:43:29.353Z,0.88
2023-01-09T10:46:04.129Z,0.73
2023-01-09T10:48:48.437Z,0.85
2023-01-09T10:51:23.099Z,0.73
2023-01-09T10:53:54.575Z,0.80
2023-01-09T10:56:32.824Z,0.93
2023-01-09T10:59:01.031Z,0.80
2023-01-09T11:01:35.116Z,0.70
2023-01-09T11:04:31.963Z,0.50
2023-01-09T11:07:05.239Z,0.70
2023-01-09T11:09:56.406Z,0.80
2023-01-09T11:12:30.666Z,0.90
2023-01-09T11:15:21.204Z,0.70
2023-01-09T11:17:51.992Z,0.80
2023-01-09T11:20:23.219Z,0.82
2023-01-09T11:22:53.750Z,0.50
2023-01-09T11:25:24.337Z,0.60
2023-01-09T11:28:08.595Z,0.90
2023-01-09T11:30:38.340Z,0.60
2023-01-09T11:33:24.908Z,1.25
2023-01-09T11:36:06.564Z,0.75
2023-01-09T11:38:47.367Z,0.73
2023-01-09T11:45:02.960Z,0.80
2023-01-09T11:47:49.770Z,0.80
2023-01-09T11:50:24.375Z,0.60
2023-01-09T11:56:37.849Z,0.70
2023-01-09T11:59:20.921Z,0.45
2023-01-09T12:02:10.637Z,0.60
2023-01-09T12:04:50.365Z,0.70
2023-01-09T12:07:25.939Z,0.35
2023-01-09T12:10:12.218Z,0.60
2023-01-09T12:13:05.233Z,0.70
2023-01-09T12:16:11.272Z,0.40
2023-01-09T12:19:07.079Z,0.50
2023-01-09T12:22:01.147Z,0.50
2023-01-09T12:24:59.136Z,0.50
2023-01-09T12:27:46.775Z,0.63
2023-01-09T12:30:44.738Z,0.60
2023-01-09T12:33:30.030Z,0.50
2023-01-09T12:36:27.712Z,0.47
2023-01-09T12:38:59.338Z,0.70
2023-01-09T12:41:47.651Z,0.50
2023-01-09T12:44:34.381Z,0.57
2023-01-09T12:47:22.982Z,0.50
2023-01-09T12:50:00.533Z,0.40
2023-01-09T12:52:43.120Z,0.50
2023-01-09T12:55:22.667Z,0.50
2023-01-09T12:57:55.188Z,0.70
2023-01-09T13:00:27.212Z,0.90
2023-01-09T13:03:12.381Z,0.68
2023-01-09T13:05:45.938Z,0.40
2023-01-09T13:08:27.629Z,0.45
2023-01-09T13:11:18.890Z,0.50
2023-01-09T13:14:02.101Z,0.38
2023-01-09T13:16:36.718Z,0.40
2023-01-09T13:19:14.861Z,0.38
2023-01-09T13:21:43.657Z,0.40
2023-01-09T13:24:34.872Z,0.40
2023-01-09T13:27:08.009Z,0.32
2023-01-09T13:29:41.447Z,0.47
2023-01-09T13:32:15.471Z,0.50
2023-01-09T13:34:46.888Z,0.43
2023-01-09T13:37:26.098Z,0.70
2023-01-09T13:40:03.257Z,1.20
2023-01-09T13:42:46.440Z,1.50
2023-01-09T13:45:17.661Z,1.15
2023-01-09T13:47:46.190Z,0.80
2023-01-09T13:50:32.755Z,1.13
2023-01-09T13:53:19.516Z,1.10
2023-01-09T13:56:00.162Z,1.25
2023-01-09T13:58:52.011Z,1.00
2023-01-09T14:01:34.827Z,0.95
2023-01-09T14:04:24.025Z,0.90
2023-01-09T14:07:34.140Z,1.10
2023-01-09T14:10:06.560Z,1.45
2023-01-09T14:15:47.921Z,1.30
2023-01-09T14:18:16.008Z,0.90
2023-01-09T14:20:54.424Z,1.00
2023-01-09T14:23:49.751Z,0.90
2023-01-09T14:26:55.335Z,1.10
2023-01-09T14:29:38.166Z,1.55
2023-01-09T14:32:21.730Z,1.30
2023-01-09T14:37:27.711Z,1.30
2023-01-09T14:39:57.363Z,0.98
2023-01-09T14:42:29.787Z,1.17
2023-01-09T14:45:06.601Z,1.15
2023-01-09T14:47:42.956Z,1.20
2023-01-09T14:50:32.470Z,1.38
2023-01-09T14:55:40.501Z,1.15
2023-01-09T14:58:28.764Z,1.33
2023-01-09T15:01:08.483Z,1.20
2023-01-09T15:03:49.722Z,1.10
2023-01-09T15:06:24.753Z,1.20
2023-01-09T15:08:59.257Z,1.65
2023-01-09T15:11:29.191Z,1.15
2023-01-09T15:14:00.428Z,1.30
2023-01-09T15:16:30.024Z,1.13
2023-01-09T15:19:04.937Z,1.20
2023-01-09T15:21:33.348Z,1.20
2023-01-09T15:24:27.345Z,1.52
2023-01-09T15:26:58.711Z,1.40
2023-01-09T15:29:27.391Z,1.08
2023-01-09T15:32:14.832Z,1.42
2023-01-09T15:37:39.137Z,1.50
2023-01-09T15:40:09.040Z,1.23
2023-01-09T15:42:57.318Z,1.45
2023-01-09T15:45:37.475Z,1.60
2023-01-09T15:48:16.035Z,1.55
2023-01-09T15:50:45.371Z,1.30
2023-01-09T15:53:22.047Z,1.30
2023-01-09T15:56:13.163Z,1.45
2023-01-09T15:58:47.533Z,1.10
2023-01-09T16:01:32.037Z,1.17
2023-01-09T16:04:10.250Z,0.95
2023-01-09T16:06:50.529Z,1.30
2023-01-09T16:09:26.015Z,1.50
2023-01-09T16:12:04.984Z,1.48
2023-01-09T16:14:38.872Z,1.00
2023-01-09T16:17:15.248Z,1.25
2023-01-09T16:19:51.813Z,1.10
2023-01-09T16:22:26.047Z,1.17
2023-01-09T16:24:56.402Z,1.10
2023-01-09T16:27:34.546Z,0.90
2023-01-09T16:30:27.237Z,1.10
2023-01-09T16:32:55.676Z,1.10
2023-01-09T16:35:26.446Z,1.20
2023-01-09T16:37:54.601Z,1.30
2023-01-09T16:40:25.685Z,1.15
2023-01-09T16:43:07.504Z,1.02
2023-01-09T16:45:42.980Z,1.10
2023-01-09T16:48:21.146Z,1.05
2023-01-09T16:50:49.381Z,1.00
2023-01-09T16:53:24.444Z,1.33
2023-01-09T16:55:54.373Z,1.00
2023-01-09T16:58:42.597Z,1.05
2023-01-09T17:01:13.731Z,1.00
2023-01-09T17:03:44.189Z,1.10
2023-01-09T17:06:32.682Z,1.30
2023-01-09T17:09:00.844Z,0.90
2023-01-09T17:11:31.917Z,1.27
2023-01-09T17:14:01.421Z,0.90
2023-01-09T17:16:30.214Z,0.80
2023-01-09T17:18:58.553Z,0.80
2023-01-09T17:26:06.050Z,1.15
2023-01-09T17:28:34.573Z,1.20
2023-01-09T17:31:06.724Z,1.17
2023-01-09T17:33:35.136Z,1.20
2023-01-09T17:36:05.626Z,1.00
2023-01-09T17:38:33.735Z,1.00
2023-01-09T17:41:01.959Z,1.10
2023-01-09T17:43:48.666Z,1.25
2023-01-09T17:46:21.853Z,1.05
2023-01-09T17:48:50.171Z,1.13
2023-01-09T17:51:18.274Z,1.20
2023-01-09T17:53:46.388Z,1.23
2023-01-09T17:59:05.375Z,1.23
2023-01-09T18:04:18.828Z,0.68
2023-01-09T18:06:48.574Z,0.40
2023-01-09T18:09:18.307Z,0.60
2023-01-09T18:11:48.603Z,0.73
2023-01-09T18:14:17.845Z,0.50
2023-01-09T18:16:46.181Z,0.50
2023-01-09T18:19:14.359Z,0.88
2023-01-09T18:21:42.446Z,0.60
2023-01-09T18:24:10.528Z,0.73
2023-01-09T18:26:38.760Z,0.50
2023-01-09T18:29:06.850Z,1.00
2023-01-09T18:31:35.045Z,1.33
2023-01-09T18:34:05.695Z,0.90
2023-01-09T18:36:34.167Z,1.38
2023-01-09T18:39:04.568Z,1.25
2023-01-09T18:41:32.778Z,1.02
2023-01-09T18:44:02.168Z,1.17
2023-01-09T18:46:32.547Z,0.93
2023-01-09T18:49:04.843Z,1.35
2023-01-09T18:51:51.652Z,1.58
2023-01-09T18:54:19.923Z,1.00
2023-01-09T18:56:47.998Z,1.25
2023-01-09T18:59:16.029Z,1.50
2023-01-09T19:01:44.222Z,1.77
2023-01-09T19:04:12.348Z,1.48
2023-01-09T19:06:40.431Z,1.23
2023-01-09T19:09:08.621Z,1.45
2023-01-09T19:11:36.732Z,1.23
2023-01-09T19:14:05.031Z,0.82
2023-01-09T19:16:33.324Z,1.20
2023-01-09T19:19:03.068Z,1.42
2023-01-09T19:21:31.270Z,0.75
2023-01-09T19:23:59.485Z,1.00
2023-01-09T19:26:29.247Z,0.93
2023-01-09T19:28:58.086Z,1.10
2023-01-09T19:31:28.732Z,1.98
2023-01-09T19:33:58.927Z,1.10
2023-01-09T19:36:28.536Z,1.00
2023-01-09T19:39:01.143Z,0.60
2023-01-09T19:41:29.977Z,1.08
2023-01-09T19:43:59.864Z,0.80
2023-01-09T19:46:28.780Z,1.00
2023-01-09T19:48:59.210Z,1.23
2023-01-09T19:51:46.307Z,0.98
2023-01-09T19:54:14.424Z,0.90
2023-01-09T19:56:45.393Z,1.30
2023-01-09T19:59:14.590Z,0.80
2023-01-09T20:01:42.817Z,1.13
2023-01-09T20:04:16.178Z,0.93
2023-01-09T20:06:47.493Z,1.10
2023-01-09T20:09:19.709Z,1.13
2023-01-09T20:11:47.995Z,1.10
2023-01-09T20:14:18.021Z,0.95
2023-01-09T20:17:05.114Z,1.02
2023-01-09T20:22:19.314Z,0.98
2023-01-09T20:24:47.440Z,1.00
2023-01-09T20:27:15.467Z,1.17
2023-01-09T20:29:44.844Z,1.33
2023-01-09T20:32:13.028Z,1.40
2023-01-09T20:34:42.942Z,1.35
2023-01-09T20:37:11.635Z,1.63
2023-01-09T20:39:39.752Z,1.30
2023-01-09T20:42:07.856Z,1.15
2023-01-09T20:44:36.004Z,1.17
2023-01-09T20:47:04.315Z,1.02
2023-01-09T20:49:32.452Z,0.95
2023-01-09T20:52:00.608Z,1.27
2023-01-09T20:54:28.689Z,1.00
2023-01-09T20:56:56.922Z,1.25
2023-01-09T20:59:43.502Z,1.00
2023-01-09T21:02:15.173Z,1.25
2023-01-09T21:04:43.221Z,0.98
2023-01-09T21:07:12.517Z,1.20
2023-01-09T21:09:40.590Z,0.70
2023-01-09T21:12:25.082Z,0.80
2023-01-09T21:14:56.638Z,0.95
2023-01-09T21:20:15.145Z,0.80
2023-01-09T21:22:43.396Z,0.88
2023-01-09T21:25:11.426Z,0.80
2023-01-09T21:27:43.715Z,1.02
2023-01-09T21:30:12.177Z,1.00
2023-01-09T21:32:40.324Z,0.75
2023-01-09T21:35:08.818Z,1.08
2023-01-09T21:37:38.219Z,1.38
2023-01-09T21:40:11.734Z,1.15
2023-01-09T21:42:58.705Z,1.13
2023-01-09T21:45:45.341Z,1.00
2023-01-09T21:48:32.101Z,0.90
2023-01-09T21:51:03.180Z,0.95
2023-01-09T21:53:31.221Z,0.80
2023-01-09T21:56:20.686Z,0.80
2023-01-09T21:58:52.734Z,0.80
2023-01-09T22:01:20.829Z,1.02
2023-01-09T22:03:48.845Z,0.80
2023-01-09T22:09:02.133Z,0.80
2023-01-09T22:11:30.327Z,1.00
2023-01-09T22:14:00.556Z,0.80
2023-01-09T22:16:28.919Z,0.90
2023-01-09T22:18:57.809Z,0.90
2023-01-09T22:21:26.353Z,1.05
2023-01-09T22:23:54.654Z,0.90
2023-01-09T22:26:22.785Z,1.27
2023-01-09T22:28:51.264Z,1.00
2023-01-09T22:31:21.890Z,0.85
2023-01-09T22:33:54.485Z,0.98
2023-01-09T22:36:41.250Z,0.85
2023-01-09T22:39:46.662Z,0.73
2023-01-09T22:45:02.305Z,0.82
2023-01-09T22:47:49.016Z,1.00
2023-01-09T22:50:17.982Z,0.90
2023-01-09T22:52:48.751Z,0.80
2023-01-09T22:58:02.591Z,1.05
2023-01-09T23:00:30.886Z,0.90
2023-01-09T23:02:59.223Z,0.93
2023-01-09T23:05:27.465Z,1.10
2023-01-09T23:07:56.494Z,0.80
2023-01-09T23:10:24.879Z,0.95
2023-01-09T23:12:53.127Z,1.05
2023-01-09T23:15:21.256Z,0.75
2023-01-09T23:17:49.503Z,0.75
2023-01-09T23:20:36.549Z,1.10
2023-01-09T23:23:04.838Z,1.02
2023-01-09T23:25:33.372Z,0.95
2023-01-09T23:28:20.391Z,0.77
2023-01-09T23:30:49.274Z,0.80
2023-01-09T23:33:18.131Z,0.82
2023-01-09T23:35:46.366Z,0.80
2023-01-09T23:38:14.674Z,0.95
2023-01-09T23:41:02.034Z,1.00
2023-01-09T23:43:49.136Z,0.90
2023-01-09T23:46:35.784Z,1.05
2023-01-09T23:49:04.081Z,0.93
2023-01-09T23:51:32.313Z,0.63
2023-01-09T23:54:00.549Z,0.70
2023-01-09T23:56:30.957Z,0.70
